createdAt,value
2022-09-05T00:02:02.072Z,101429.72
2022-09-05T00:04:32.011Z,101438.28
2022-09-05T00:07:38.774Z,101438.25
2022-09-05T00:10:22.170Z,101432.53
2022-09-05T00:12:51.265Z,101426.91
2022-09-05T00:15:44.059Z,101437.09
2022-09-05T00:23:31.977Z,101435.28
2022-09-05T00:24:28.427Z,101442.03
2022-09-05T00:25:31.709Z,101435.41
2022-09-05T00:28:14.543Z,101430.81
2022-09-05T00:31:07.421Z,101434.50
2022-09-05T00:34:10.514Z,101435.16
2022-09-05T00:36:47.429Z,101435.03
2022-09-05T00:39:19.752Z,101423.53
2022-09-05T00:41:51.798Z,101416.22
2022-09-05T00:44:24.231Z,101429.63
2022-09-05T00:47:07.610Z,101420.81
2022-09-05T00:49:40.810Z,101413.78
2022-09-05T00:52:14.626Z,101412.47
2022-09-05T00:54:53.717Z,101411.25
2022-09-05T00:57:36.023Z,101411.03
2022-09-05T01:00:10.831Z,101407.03
2022-09-05T01:02:51.860Z,101411.06
2022-09-05T01:05:38.357Z,101416.38
2022-09-05T01:08:42.512Z,101414.78
2022-09-05T01:11:47.304Z,101403.72
2022-09-05T01:14:26.544Z,101400.91
2022-09-05T01:17:17.875Z,101400.47
2022-09-05T01:20:19.477Z,101394.91
2022-09-05T01:22:59.147Z,101400.28
2022-09-05T01:25:34.205Z,101391.28
2022-09-05T01:29:15.524Z,101396.81
2022-09-05T01:31:21.237Z,101400.28
2022-09-05T01:34:31.950Z,101405.00
2022-09-05T01:37:32.907Z,101399.88
2022-09-05T01:40:17.248Z,101396.00
2022-09-05T01:43:25.800Z,101392.13
2022-09-05T01:46:15.684Z,101387.16
2022-09-05T01:48:48.502Z,101393.06
2022-09-05T01:51:29.189Z,101393.13
2022-09-05T01:54:24.397Z,101395.06
2022-09-05T01:57:21.409Z,101389.94
2022-09-05T01:59:55.415Z,101395.63
2022-09-05T02:02:36.703Z,101388.78
2022-09-05T02:05:48.883Z,101396.94
2022-09-05T02:08:16.378Z,101400.41
2022-09-05T02:11:06.264Z,101400.31
2022-09-05T02:13:36.209Z,101405.84
2022-09-05T02:16:20.947Z,101401.94
2022-09-05T02:19:06.639Z,101399.19
2022-09-05T02:21:33.479Z,101405.06
2022-09-05T02:24:30.564Z,101399.00
2022-09-05T02:27:30.237Z,101400.13
2022-09-05T02:30:08.323Z,101403.25
2022-09-05T02:33:10.415Z,101407.69
2022-09-05T02:35:45.954Z,101393.50
2022-09-05T02:40:27.818Z,101401.88
2022-09-05T02:45:12.505Z,101407.56
2022-09-05T02:45:19.432Z,101404.00
2022-09-05T02:47:40.423Z,101393.50
2022-09-05T02:52:43.886Z,101392.75
2022-09-05T02:57:32.960Z,101392.69
2022-09-05T02:58:04.011Z,101399.66
2022-09-05T02:59:35.916Z,101394.72
2022-09-05T03:02:42.082Z,101394.53
2022-09-05T03:05:10.531Z,101390.09
2022-09-05T03:08:04.599Z,101389.13
2022-09-05T03:10:54.592Z,101396.91
2022-09-05T03:14:03.508Z,101396.19
2022-09-05T03:16:38.596Z,101394.59
2022-09-05T03:19:52.303Z,101387.72
2022-09-05T03:22:41.001Z,101386.69
2022-09-05T03:25:20.462Z,101382.03
2022-09-05T03:28:15.203Z,101387.34
2022-09-05T03:31:07.420Z,101380.88
2022-09-05T03:34:02.457Z,101385.53
2022-09-05T03:36:56.655Z,101384.50
2022-09-05T03:39:32.473Z,101381.91
2022-09-05T03:42:30.796Z,101383.63
2022-09-05T03:45:05.522Z,101378.47
2022-09-05T03:47:50.979Z,101389.56
2022-09-05T03:57:05.747Z,101382.59
2022-09-05T03:57:10.481Z,101387.22
2022-09-05T03:57:17.337Z,101386.91
2022-09-05T04:00:09.189Z,101378.00
2022-09-05T04:08:09.353Z,101385.22
2022-09-05T04:08:17.044Z,101380.38
2022-09-05T04:08:43.289Z,101377.91
2022-09-05T04:11:16.645Z,101389.38
2022-09-05T04:13:59.563Z,101390.91
2022-09-05T04:16:46.929Z,101392.25
2022-09-05T04:19:31.951Z,101389.50
2022-09-05T04:22:20.403Z,101394.09
2022-09-05T04:25:04.868Z,101381.16
2022-09-05T04:27:51.468Z,101387.53
2022-09-05T04:30:43.394Z,101390.88
2022-09-05T04:33:40.122Z,101387.63
2022-09-05T04:36:18.339Z,101388.63
2022-09-05T04:38:46.437Z,101392.13
2022-09-05T04:41:16.435Z,101399.75
2022-09-05T04:43:55.472Z,101394.63
2022-09-05T04:46:48.237Z,101400.41
2022-09-05T04:49:33.139Z,101393.63
2022-09-05T04:52:02.781Z,101404.28
2022-09-05T04:54:48.463Z,101395.47
2022-09-05T04:57:44.530Z,101402.13
2022-09-05T05:05:58.697Z,101405.53
2022-09-05T05:06:08.226Z,101408.63
2022-09-05T05:09:04.753Z,101419.00
2022-09-05T05:15:56.603Z,101410.16
2022-09-05T05:17:55.852Z,101420.56
2022-09-05T05:18:36.464Z,101421.75
2022-09-05T05:21:07.076Z,101421.97
2022-09-05T05:23:38.849Z,101408.97
2022-09-05T05:26:10.002Z,101421.25
2022-09-05T05:28:50.962Z,101414.81
2022-09-05T05:31:21.980Z,101414.13
2022-09-05T05:33:51.163Z,101413.59
2022-09-05T05:36:29.000Z,101413.47
2022-09-05T05:39:08.486Z,101416.38
2022-09-05T05:41:48.800Z,101413.00
2022-09-05T05:44:22.313Z,101420.09
2022-09-05T05:47:04.337Z,101422.03
2022-09-05T05:49:42.817Z,101421.50
2022-09-05T05:52:27.907Z,101425.44
2022-09-05T05:55:50.764Z,101419.06
2022-09-05T05:58:17.164Z,101437.66
2022-09-05T06:01:21.916Z,101435.72
2022-09-05T06:04:23.491Z,101434.38
2022-09-05T06:07:02.344Z,101439.22
2022-09-05T06:14:51.206Z,101435.66
2022-09-05T06:14:56.909Z,101449.28
2022-09-05T06:16:13.170Z,101447.47
2022-09-05T06:19:12.485Z,101426.81
2022-09-05T06:22:10.956Z,101428.53
2022-09-05T06:24:54.395Z,101437.72
2022-09-05T06:28:01.696Z,101428.59
2022-09-05T06:30:26.726Z,101431.38
2022-09-05T06:32:58.356Z,101436.72
2022-09-05T06:35:31.588Z,101439.44
2022-09-05T06:38:01.618Z,101435.28
2022-09-05T06:40:32.030Z,101430.63
2022-09-05T06:43:33.422Z,101436.72
2022-09-05T06:46:03.346Z,101439.28
2022-09-05T06:48:53.342Z,101434.84
2022-09-05T06:52:09.759Z,101437.94
2022-09-05T06:55:00.269Z,101438.34
2022-09-05T06:57:54.577Z,101443.44
2022-09-05T07:00:25.223Z,101437.25
2022-09-05T07:03:10.199Z,101445.88
2022-09-05T07:05:45.570Z,101442.47
2022-09-05T07:08:36.593Z,101436.22
2022-09-05T07:11:29.555Z,101430.41
2022-09-05T07:14:16.504Z,101436.56
2022-09-05T07:16:49.030Z,101442.84
2022-09-05T07:19:26.069Z,101445.50
2022-09-05T07:22:46.302Z,101446.66
2022-09-05T07:25:18.217Z,101442.25
2022-09-05T07:28:25.919Z,101448.97
2022-09-05T07:31:04.422Z,101451.09
2022-09-05T07:33:31.625Z,101452.19
2022-09-05T07:36:06.893Z,101456.34
2022-09-05T07:38:52.498Z,101446.06
2022-09-05T07:41:30.592Z,101442.59
2022-09-05T07:44:09.442Z,101445.66
2022-09-05T07:46:39.260Z,101446.13
2022-09-05T07:49:08.288Z,101446.41
2022-09-05T07:56:55.289Z,101454.53
2022-09-05T07:57:08.833Z,101456.38
2022-09-05T07:57:31.398Z,101457.50
2022-09-05T08:00:07.341Z,101461.25
2022-09-05T08:02:54.583Z,101459.44
2022-09-05T08:05:25.960Z,101466.00
2022-09-05T08:08:03.994Z,101467.09
2022-09-05T08:11:21.945Z,101479.25
2022-09-05T08:13:27.081Z,101470.34
2022-09-05T08:16:13.284Z,101477.59
2022-09-05T08:18:51.793Z,101475.03
2022-09-05T08:21:27.096Z,101477.38
2022-09-05T08:24:14.439Z,101472.97
2022-09-05T08:26:47.092Z,101476.53
2022-09-05T08:29:35.543Z,101479.72
2022-09-05T08:32:08.872Z,101476.31
2022-09-05T08:34:46.588Z,101486.88
2022-09-05T08:37:25.880Z,101480.31
2022-09-05T08:40:09.654Z,101478.16
2022-09-05T08:45:46.354Z,101467.13
2022-09-05T08:46:43.803Z,101474.56
2022-09-05T08:49:37.162Z,101464.97
2022-09-05T08:52:27.766Z,101463.91
2022-09-05T08:55:07.655Z,101466.41
2022-09-05T08:57:47.034Z,101473.63
2022-09-05T09:00:20.907Z,101459.25
2022-09-05T09:02:57.242Z,101454.38
2022-09-05T09:06:12.815Z,101458.03
2022-09-05T09:08:46.175Z,101452.00
2022-09-05T09:11:34.410Z,101447.16
2022-09-05T09:14:30.444Z,101456.03
2022-09-05T09:17:13.501Z,101445.81
2022-09-05T09:19:52.262Z,101438.84
2022-09-05T09:22:34.925Z,101437.63
2022-09-05T09:25:15.055Z,101432.47
2022-09-05T09:28:48.667Z,101429.38
2022-09-05T09:31:17.154Z,101433.38
2022-09-05T09:33:49.864Z,101430.47
2022-09-05T09:36:42.288Z,101419.13
2022-09-05T09:39:38.013Z,101427.03
2022-09-05T09:42:09.228Z,101422.31
2022-09-05T09:44:48.509Z,101426.97
2022-09-05T09:47:22.329Z,101418.78
2022-09-05T09:50:01.653Z,101430.00
2022-09-05T09:52:40.472Z,101426.25
2022-09-05T09:55:39.817Z,101414.00
2022-09-05T09:58:13.688Z,101426.66
2022-09-05T10:00:51.338Z,101426.63
2022-09-05T10:10:23.312Z,101430.50
2022-09-05T10:10:51.890Z,101429.91
2022-09-05T10:10:52.851Z,101421.75
2022-09-05T10:13:09.201Z,101415.22
2022-09-05T10:15:39.644Z,101409.09
2022-09-05T10:18:07.571Z,101407.44
2022-09-05T10:20:53.908Z,101412.16
2022-09-05T10:23:46.572Z,101408.56
2022-09-05T10:26:22.512Z,101403.56
2022-09-05T10:28:52.143Z,101404.09
2022-09-05T10:32:14.973Z,101393.13
2022-09-05T10:35:13.751Z,101399.84
2022-09-05T10:37:11.020Z,101390.97
2022-09-05T10:39:40.852Z,101381.00
2022-09-05T10:42:15.726Z,101385.66
2022-09-05T10:44:50.498Z,101386.38
2022-09-05T10:47:30.465Z,101389.25
2022-09-05T10:50:13.527Z,101390.22
2022-09-05T10:53:09.932Z,101387.13
2022-09-05T10:55:58.959Z,101387.38
2022-09-05T11:01:27.626Z,101389.94
2022-09-05T11:02:29.473Z,101385.06
2022-09-05T11:04:49.835Z,101381.78
2022-09-05T11:07:30.466Z,101390.34
2022-09-05T11:10:04.933Z,101385.19
2022-09-05T11:12:32.822Z,101384.94
2022-09-05T11:15:02.585Z,101376.81
2022-09-05T11:17:39.761Z,101372.38
2022-09-05T11:20:22.516Z,101372.97
2022-09-05T11:23:08.989Z,101364.06
2022-09-05T11:25:40.669Z,101372.47
2022-09-05T11:28:22.413Z,101368.53
2022-09-05T11:30:53.469Z,101373.03
2022-09-05T11:39:52.398Z,101366.72
2022-09-05T11:39:55.069Z,101356.03
2022-09-05T11:40:31.454Z,101360.75
2022-09-05T11:43:43.105Z,101360.56
2022-09-05T11:46:13.081Z,101355.06
2022-09-05T11:49:24.368Z,101356.78
2022-09-05T11:52:12.319Z,101358.19
2022-09-05T11:55:20.722Z,101365.00
2022-09-05T12:05:50.129Z,101335.41
2022-09-05T12:08:00.721Z,101328.94
2022-09-05T12:11:14.806Z,101349.78
2022-09-05T12:14:21.028Z,101352.59
2022-09-05T12:20:22.466Z,101335.91
2022-09-05T12:23:06.247Z,101341.72
2022-09-05T12:27:41.466Z,101333.50
2022-09-05T12:33:32.267Z,101326.56
2022-09-05T12:36:07.147Z,101338.03
2022-09-05T12:40:54.149Z,101333.13
2022-09-05T12:41:35.368Z,101351.63
2022-09-05T12:41:37.361Z,101331.38
2022-09-05T12:41:41.809Z,101324.06
2022-09-05T12:42:10.985Z,101343.72
2022-09-05T12:44:32.615Z,101329.47
2022-09-05T12:46:48.632Z,101325.50
2022-09-05T12:50:15.003Z,101329.69
2022-09-05T12:52:59.890Z,101325.00
2022-09-05T12:56:32.265Z,101318.84
2022-09-05T13:02:56.002Z,101306.81
2022-09-05T13:03:13.135Z,101311.34
2022-09-05T13:05:02.824Z,101286.44
2022-09-05T13:07:41.088Z,101303.53
2022-09-05T13:13:26.124Z,101296.94
2022-09-05T13:14:58.996Z,101295.59
2022-09-05T13:16:03.527Z,101296.31
2022-09-05T13:18:39.188Z,101292.22
2022-09-05T13:21:27.204Z,101293.38
2022-09-05T13:24:12.470Z,101293.47
2022-09-05T13:26:47.536Z,101281.38
2022-09-05T13:29:18.663Z,101284.78
2022-09-05T13:37:55.424Z,101290.56
2022-09-05T13:38:20.331Z,101274.94
2022-09-05T14:01:09.566Z,101248.97
2022-09-05T14:04:09.075Z,101246.66
2022-09-05T14:07:43.939Z,101254.03
2022-09-05T14:10:23.339Z,101238.38
2022-09-05T14:13:04.422Z,101236.84
2022-09-05T14:15:52.673Z,101231.09
2022-09-05T14:18:30.153Z,101226.34
2022-09-05T14:21:17.280Z,101232.50
2022-09-05T14:23:53.671Z,101229.19
2022-09-05T14:26:35.452Z,101217.47
2022-09-05T14:29:20.644Z,101213.47
2022-09-05T14:37:39.268Z,101206.84
2022-09-05T14:37:50.982Z,101207.84
2022-09-05T14:38:10.040Z,101199.25
2022-09-05T14:41:12.617Z,101188.50
2022-09-05T14:44:07.834Z,101183.22
2022-09-05T14:47:06.941Z,101179.53
2022-09-05T14:49:59.196Z,101187.34
2022-09-05T14:52:28.677Z,101183.72
2022-09-05T15:02:39.166Z,101194.28
2022-09-05T15:02:48.565Z,101184.69
2022-09-05T15:06:36.346Z,101186.84
2022-09-05T15:11:24.447Z,101197.03
2022-09-05T15:12:21.291Z,101204.31
2022-09-05T15:14:43.055Z,101200.09
2022-09-05T15:17:10.618Z,101190.06
2022-09-05T15:20:06.236Z,101190.69
2022-09-05T15:22:37.445Z,101190.41
2022-09-05T15:25:17.262Z,101196.66
2022-09-05T15:27:46.183Z,101206.50
2022-09-05T15:30:35.908Z,101220.13
2022-09-05T15:33:26.381Z,101223.28
2022-09-05T15:35:56.619Z,101230.25
2022-09-05T15:38:26.726Z,101236.72
2022-09-05T15:41:18.139Z,101232.78
2022-09-05T15:43:52.877Z,101240.72
2022-09-05T15:46:30.942Z,101245.81
2022-09-05T15:49:04.151Z,101241.16
2022-09-05T15:51:55.198Z,101242.59
2022-09-05T15:54:38.381Z,101234.00
2022-09-05T15:57:18.026Z,101217.56
2022-09-05T16:00:00.778Z,101215.06
2022-09-05T16:03:25.791Z,101208.84
2022-09-05T16:10:29.344Z,101194.06
2022-09-05T16:24:59.212Z,101197.69
2022-09-05T16:27:54.961Z,101204.06
2022-09-05T16:30:24.157Z,101213.19
2022-09-05T16:32:55.892Z,101203.66
2022-09-05T16:35:26.232Z,101187.31
2022-09-05T16:38:14.999Z,101194.78
2022-09-05T16:41:04.076Z,101187.91
2022-09-05T16:43:35.099Z,101198.16
2022-09-05T16:46:11.139Z,101203.72
2022-09-05T16:48:43.977Z,101201.28
2022-09-05T16:51:35.443Z,101204.72
2022-09-05T16:54:29.236Z,101186.44
2022-09-05T16:57:00.546Z,101185.94
2022-09-05T16:59:30.602Z,101181.66
2022-09-05T17:02:07.491Z,101184.22
2022-09-05T17:05:05.145Z,101175.56
2022-09-05T17:07:42.221Z,101172.78
2022-09-05T17:10:36.421Z,101163.34
2022-09-05T17:13:04.056Z,101166.00
2022-09-05T17:15:35.506Z,101165.56
2022-09-05T17:18:21.651Z,101156.44
2022-09-05T17:20:55.017Z,101149.84
2022-09-05T17:29:17.890Z,101156.25
2022-09-05T17:29:27.607Z,101156.19
2022-09-05T17:32:39.566Z,101161.19
2022-09-05T17:35:44.027Z,101161.28
2022-09-05T17:38:35.281Z,101162.19
2022-09-05T17:41:17.951Z,101164.94
2022-09-05T17:44:03.285Z,101157.03
2022-09-05T17:46:34.022Z,101161.69
2022-09-05T17:49:18.204Z,101151.78
2022-09-05T17:51:53.086Z,101150.41
2022-09-05T17:54:28.720Z,101149.00
2022-09-05T17:56:55.526Z,101153.00
2022-09-05T17:59:23.276Z,101151.06
2022-09-05T18:02:02.367Z,101154.03
2022-09-05T18:04:47.451Z,101145.31
2022-09-05T18:07:26.476Z,101144.22
2022-09-05T18:10:15.198Z,101137.19
2022-09-05T18:13:31.755Z,101142.72
2022-09-05T18:15:32.748Z,101145.50
2022-09-05T18:18:08.771Z,101140.34
2022-09-05T18:21:21.105Z,101139.25
2022-09-05T18:24:04.466Z,101134.53
2022-09-05T18:26:39.713Z,101148.84
2022-09-05T18:29:30.992Z,101138.13
2022-09-05T18:32:12.177Z,101156.88
2022-09-05T18:34:40.793Z,101162.13
2022-09-05T18:37:51.661Z,101159.22
2022-09-05T18:41:18.715Z,101156.78
2022-09-05T18:44:13.095Z,101173.88
2022-09-05T18:47:33.012Z,101160.19
2022-09-05T18:50:26.379Z,101181.22
2022-09-05T18:53:09.941Z,101192.50
2022-09-05T18:56:21.393Z,101179.22
2022-09-05T18:59:09.499Z,101187.84
2022-09-05T19:01:58.766Z,101203.06
2022-09-05T19:04:40.335Z,101216.56
2022-09-05T19:07:16.661Z,101218.13
2022-09-05T19:10:10.842Z,101246.00
2022-09-05T19:12:59.329Z,101306.16
2022-09-05T19:15:31.377Z,101311.69
2022-09-05T19:18:26.222Z,101320.25
2022-09-05T19:21:12.316Z,101327.94
2022-09-05T19:23:50.636Z,101318.88
2022-09-05T19:26:17.801Z,101302.66
2022-09-05T19:36:44.622Z,101303.81
2022-09-05T19:36:54.777Z,101312.84
2022-09-05T19:37:22.527Z,101302.97
2022-09-05T19:37:28.865Z,101289.56
2022-09-05T19:47:25.355Z,101298.75
2022-09-05T19:47:34.564Z,101288.47
2022-09-05T19:47:39.460Z,101297.97
2022-09-05T19:48:35.141Z,101286.53
2022-09-05T19:51:16.501Z,101283.38
2022-09-05T19:54:03.849Z,101269.13
2022-09-05T19:56:37.855Z,101256.88
2022-09-05T19:59:18.447Z,101260.00
2022-09-05T20:01:46.942Z,101256.06
2022-09-05T20:04:16.608Z,101260.81
2022-09-05T20:06:48.004Z,101247.38
2022-09-05T20:09:19.690Z,101236.25
2022-09-05T20:11:52.523Z,101239.00
2022-09-05T20:14:31.568Z,101248.56
2022-09-05T20:17:21.116Z,101227.22
2022-09-05T20:19:48.719Z,101230.31
2022-09-05T20:22:49.559Z,101228.28
2022-09-05T20:25:19.839Z,101223.97
2022-09-05T20:27:59.689Z,101226.03
2022-09-05T20:30:35.031Z,101227.19
2022-09-05T20:33:06.066Z,101226.72
2022-09-05T20:40:06.829Z,101225.53
2022-09-05T20:43:24.415Z,101218.06
2022-09-05T20:43:27.108Z,101205.38
2022-09-05T20:44:22.393Z,101208.97
2022-09-05T20:53:09.736Z,101193.19
2022-09-05T20:54:13.200Z,101174.63
2022-09-05T20:54:18.049Z,101177.81
2022-09-05T20:55:45.015Z,101179.38
2022-09-05T20:58:14.522Z,101188.88
2022-09-05T21:01:20.497Z,101213.00
2022-09-05T21:03:45.614Z,101256.88
2022-09-05T21:06:21.145Z,101290.06
2022-09-05T21:08:52.308Z,101304.72
2022-09-05T21:11:29.308Z,101302.28
2022-09-05T21:13:57.671Z,101302.59
2022-09-05T21:16:28.454Z,101284.13
2022-09-05T21:18:55.368Z,101269.00
2022-09-05T21:21:28.939Z,101274.56
2022-09-05T21:24:26.167Z,101282.81
2022-09-05T21:26:53.130Z,101300.66
2022-09-05T21:29:27.343Z,101311.38
2022-09-05T21:32:01.728Z,101297.94
2022-09-05T21:34:31.802Z,101273.81
2022-09-05T21:37:07.271Z,101220.00
2022-09-05T21:39:46.757Z,101190.72
2022-09-05T21:47:33.097Z,101172.81
2022-09-05T21:47:42.154Z,101169.16
2022-09-05T21:48:04.472Z,101170.31
2022-09-05T21:50:46.456Z,101151.81
2022-09-05T21:54:54.687Z,101144.66
2022-09-05T21:59:30.182Z,101141.53
2022-09-05T21:59:37.027Z,101129.53
2022-09-05T22:01:53.171Z,101135.84
2022-09-05T22:04:22.236Z,101120.13
2022-09-05T22:06:49.794Z,101126.09
2022-09-05T22:09:19.933Z,101152.50
2022-09-05T22:11:50.576Z,101193.03
2022-09-05T22:14:19.344Z,101298.41
2022-09-05T22:16:47.589Z,101306.72
2022-09-05T22:19:27.017Z,101316.66
2022-09-05T22:22:16.434Z,101301.75
2022-09-05T22:24:52.749Z,101302.88
2022-09-05T22:27:20.249Z,101361.31
2022-09-05T22:29:51.174Z,101381.59
2022-09-05T22:32:35.032Z,101364.63
2022-09-05T22:35:26.863Z,101322.84
2022-09-05T22:37:59.114Z,101307.44
2022-09-05T22:40:28.729Z,101291.09
2022-09-05T22:43:00.216Z,101299.97
2022-09-05T22:45:28.629Z,101306.41
2022-09-05T22:47:55.790Z,101321.78
2022-09-05T22:50:23.271Z,101347.69
2022-09-05T22:52:50.137Z,101344.31
2022-09-05T22:55:19.279Z,101334.84
2022-09-05T22:57:46.473Z,101347.09
2022-09-05T23:00:13.632Z,101326.03
2022-09-05T23:02:40.504Z,101316.34
2022-09-05T23:05:09.972Z,101305.34
2022-09-05T23:07:37.371Z,101305.94
2022-09-05T23:10:04.450Z,101291.88
2022-09-05T23:12:35.593Z,101275.97
2022-09-05T23:15:02.371Z,101257.53
2022-09-05T23:17:29.258Z,101245.09
2022-09-05T23:19:56.579Z,101230.59
2022-09-05T23:22:23.343Z,101212.09
2022-09-05T23:24:50.247Z,101194.97
2022-09-05T23:27:17.213Z,101182.47
2022-09-05T23:29:44.447Z,101156.03
2022-09-05T23:32:11.202Z,101158.53
2022-09-05T23:34:38.663Z,101155.16
2022-09-05T23:37:08.816Z,101150.09
2022-09-05T23:39:35.720Z,101126.34
2022-09-05T23:42:02.753Z,101115.00
2022-09-05T23:44:29.418Z,101107.72
2022-09-05T23:46:56.991Z,101118.72
2022-09-05T23:49:23.783Z,101128.38
2022-09-05T23:51:50.446Z,101139.44
2022-09-05T23:54:17.190Z,101132.47
2022-09-05T23:56:44.006Z,101139.75
2022-09-05T23:59:11.716Z,101130.31
